Time;durP1;ratioP1;P1;durP2;ratioP2;P2;SDS_P1;SDS_P2;PMS_P1;PMS_P2;Temp;Humidity;BMP_temperature;BMP_pressure;BME280_temperature;BME280_humidity;BME280_pressure;Samples;Min_cycle;Max_cycle;Signal;HPM_P1;HPM_P2
2023/03/11 00:00:44;;;;;;;9.80;5.33;;;;;;;0.83;89.35;100636.44;5030079;28;20032;-55
2023/03/11 00:03:12;;;;;;;10.67;5.43;;;;;;;0.89;89.29;100630.19;5032028;28;20431;-55
2023/03/11 00:05:40;;;;;;;10.70;6.20;;;;;;;0.86;88.94;100627.66;5032455;28;20452;-55
2023/03/11 00:08:08;;;;;;;8.33;5.50;;;;;;;0.83;90.75;100625.97;5032376;28;20168;-56
2023/03/11 00:10:37;;;;;;;10.03;6.47;;;;;;;0.80;91.19;100630.44;5030442;28;20035;-56
2023/03/11 00:13:06;;;;;;;12.18;6.55;;;;;;;0.81;91.66;100635.63;5032184;28;20026;-55
2023/03/11 00:15:32;;;;;;;14.37;5.73;;;;;;;0.78;91.06;100632.22;5030141;28;20388;-55
2023/03/11 00:17:58;;;;;;;8.40;5.50;;;;;;;0.73;91.60;100627.09;5032101;28;20472;-55
2023/03/11 00:20:30;;;;;;;9.00;6.80;;;;;;;0.62;91.06;100634.41;5030466;28;20025;-55
2023/03/11 00:22:56;;;;;;;14.87;6.27;;;;;;;0.64;89.89;100645.66;5032493;28;20026;-55
2023/03/11 00:25:24;;;;;;;8.40;5.50;;;;;;;0.53;91.00;100629.38;5031779;28;20225;-55
2023/03/11 00:27:50;;;;;;;8.10;5.17;;;;;;;0.51;92.24;100642.50;5032187;28;20515;-56
2023/03/11 00:30:18;;;;;;;10.63;6.10;;;;;;;0.52;91.99;100648.59;5029592;28;20032;-56
2023/03/11 00:32:43;;;;;;;9.50;5.57;;;;;;;0.49;92.80;100646.91;5031690;28;20025;-55
2023/03/11 00:35:15;;;;;;;11.57;5.73;;;;;;;0.46;90.78;100654.84;5030176;28;20481;-56
2023/03/11 00:37:41;;;;;;;6.67;5.43;;;;;;;0.40;91.12;100665.44;5030891;28;20025;-55
2023/03/11 00:40:11;;;;;;;10.60;6.23;;;;;;;0.41;91.66;100669.78;5030241;28;20032;-56
2023/03/11 00:42:38;;;;;;;9.70;5.57;;;;;;;0.39;91.28;100667.22;5031819;28;20025;-56
2023/03/11 00:45:04;;;;;;;7.53;5.07;;;;;;;0.33;90.67;100663.91;5013728;28;20091;-55
2023/03/11 00:47:29;;;;;;;11.80;5.20;;;;;;;0.36;90.31;100669.91;5029991;28;20484;-56
2023/03/11 00:49:55;;;;;;;8.30;5.73;;;;;;;0.37;91.31;100668.16;5029976;28;20029;-55
2023/03/11 00:52:20;;;;;;;8.80;5.20;;;;;;;0.37;91.54;100671.63;5031216;28;20080;-56
2023/03/11 00:54:45;;;;;;;12.30;5.83;;;;;;;0.38;92.76;100675.97;5031190;28;20045;-56
2023/03/11 00:57:11;;;;;;;11.00;5.80;;;;;;;0.33;92.21;100671.75;5030137;28;20040;-56
2023/03/11 00:59:36;;;;;;;12.20;5.60;;;;;;;0.36;92.30;100687.38;5030789;28;20029;-56
2023/03/11 01:02:01;;;;;;;10.60;5.73;;;;;;;0.37;91.81;100686.47;5031219;28;20465;-56
2023/03/11 01:04:27;;;;;;;9.80;5.60;;;;;;;0.27;92.08;100683.22;5030092;28;20029;-56
2023/03/11 01:06:52;;;;;;;8.30;5.20;;;;;;;0.33;92.38;100692.66;5031461;28;20036;-56
2023/03/11 01:09:18;;;;;;;9.00;5.83;;;;;;;0.38;92.07;100701.25;5029408;28;20026;-56
2023/03/11 01:11:43;;;;;;;10.80;5.93;;;;;;;0.38;92.61;100703.84;5031601;28;20074;-55
2023/03/11 01:14:11;;;;;;;9.73;5.23;;;;;;;0.41;92.41;100709.03;5031079;28;20040;-55
2023/03/11 01:16:38;;;;;;;15.13;5.43;;;;;;;0.34;92.61;100697.84;5029576;28;20081;-56
2023/03/11 01:19:04;;;;;;;5.93;5.00;;;;;;;0.38;92.01;100709.09;5032543;28;20025;-55
2023/03/11 01:21:30;;;;;;;8.70;6.10;;;;;;;0.43;91.05;100704.63;5031366;28;20515;-56
2023/03/11 01:23:55;;;;;;;8.40;5.33;;;;;;;0.32;90.65;100696.16;5030299;28;20477;-55
2023/03/11 01:26:21;;;;;;;7.90;5.87;;;;;;;0.39;90.96;100711.69;5031104;28;20032;-56
2023/03/11 01:28:46;;;;;;;6.63;5.03;;;;;;;0.42;90.88;100710.75;5031194;28;20031;-55
2023/03/11 01:31:11;;;;;;;9.30;5.73;;;;;;;0.42;91.18;100716.00;5030353;28;20026;-56
2023/03/11 01:33:37;;;;;;;6.77;5.20;;;;;;;0.42;89.85;100714.22;5030263;28;20061;-55
2023/03/11 01:36:03;;;;;;;12.30;5.20;;;;;;;0.40;90.48;100715.16;5029925;28;20026;-55
2023/03/11 01:38:28;;;;;;;11.47;6.00;;;;;;;0.36;89.87;100717.00;5031193;28;20100;-55
2023/03/11 01:40:56;;;;;;;5.97;5.33;;;;;;;0.36;88.93;100718.75;5030125;28;20025;-55
2023/03/11 01:43:42;;;;;;;10.60;4.80;;;;;;;0.35;90.26;100717.88;5035653;28;20384;-55
2023/03/11 01:46:15;;;;;;;12.53;5.57;;;;;;;0.34;91.05;100715.31;5049027;28;20116;-56
2023/03/11 01:48:46;;;;;;;11.27;5.73;;;;;;;0.29;90.03;100714.53;5033412;28;20037;-56
2023/03/11 01:51:12;;;;;;;13.90;6.10;;;;;;;0.29;89.20;100712.78;5031237;28;20032;-56
2023/03/11 01:53:38;;;;;;;11.93;5.67;;;;;;;0.24;89.58;100712.03;5037845;28;20112;-55
2023/03/11 01:56:05;;;;;;;11.07;5.97;;;;;;;0.28;89.22;100718.91;5034057;28;20203;-56
2023/03/11 01:58:36;;;;;;;10.00;5.80;;;;;;;0.20;88.94;100707.75;5027938;28;20033;-56
2023/03/11 02:01:03;;;;;;;10.27;5.53;;;;;;;0.20;89.31;100718.22;5030279;28;20121;-55
2023/03/11 02:03:35;;;;;;;10.23;4.70;;;;;;;0.20;89.61;100719.06;5030434;28;20108;-55
2023/03/11 02:06:04;;;;;;;13.90;7.30;;;;;;;0.13;89.93;100716.66;5033058;28;20040;-55
2023/03/11 02:08:33;;;;;;;13.40;6.60;;;;;;;0.11;89.72;100715.81;5032839;28;20033;-56
2023/03/11 02:11:01;;;;;;;12.03;6.13;;;;;;;0.07;89.16;100703.72;5032851;28;20025;-55
2023/03/11 02:13:27;;;;;;;9.70;5.10;;;;;;;0.11;89.70;100715.81;5049493;28;20026;-55
2023/03/11 02:15:54;;;;;;;11.33;5.90;;;;;;;-0.01;90.05;100703.88;5033616;28;20040;-55
2023/03/11 02:18:21;;;;;;;9.50;5.70;;;;;;;0.01;90.79;100717.78;5034007;28;20061;-55
2023/03/11 02:21:16;;;;;;;7.50;5.37;;;;;;;0.05;90.69;100723.78;5032859;28;20045;-56
2023/03/11 02:23:56;;;;;;;7.57;5.17;;;;;;;0.00;89.96;100721.31;5033668;28;20464;-55
2023/03/11 02:26:30;;;;;;;11.87;5.43;;;;;;;-0.02;89.92;100723.09;5033886;28;20057;-55
2023/03/11 02:28:58;;;;;;;10.37;5.50;;;;;;;-0.01;89.74;100724.78;5033809;28;20044;-55
2023/03/11 02:31:24;;;;;;;10.93;5.93;;;;;;;-0.01;89.58;100728.25;5032405;28;20022;-56
2023/03/11 02:33:56;;;;;;;9.67;5.80;;;;;;;0.02;90.00;100723.88;5032757;28;20021;-57
2023/03/11 02:36:40;;;;;;;8.30;5.93;;;;;;;-0.01;91.11;100712.56;5016206;28;20040;-56
2023/03/11 02:39:07;;;;;;;7.80;5.47;;;;;;;0.01;90.51;100717.78;5014369;28;20034;-57
2023/03/11 02:41:37;;;;;;;8.40;5.60;;;;;;;0.04;91.06;100722.94;5017983;28;20029;-57
2023/03/11 02:44:07;;;;;;;8.77;4.70;;;;;;;0.06;91.21;100722.88;5032462;28;20536;-56
2023/03/11 02:46:37;;;;;;;7.80;5.63;;;;;;;0.07;90.20;100727.25;5032131;28;20033;-56
2023/03/11 02:49:04;;;;;;;12.67;6.13;;;;;;;0.05;90.68;100723.78;5032428;28;20057;-56
2023/03/11 02:51:30;;;;;;;11.97;5.80;;;;;;;-0.09;91.04;100709.28;5033655;28;20050;-56
2023/03/11 02:53:58;;;;;;;7.93;5.90;;;;;;;-0.10;90.92;100711.91;5034159;28;20444;-56
2023/03/11 02:56:24;;;;;;;8.90;5.93;;;;;;;-0.06;90.72;100717.06;5031945;28;20069;-57
2023/03/11 02:58:49;;;;;;;8.63;5.87;;;;;;;-0.07;90.03;100717.09;5033714;28;20726;-56
2023/03/11 03:01:15;;;;;;;6.57;5.43;;;;;;;-0.13;89.91;100712.84;5046432;28;20116;-56
2023/03/11 03:03:40;;;;;;;8.03;5.33;;;;;;;-0.16;90.11;100715.53;5036497;28;20454;-56
2023/03/11 03:06:06;;;;;;;10.70;5.40;;;;;;;-0.14;90.96;100718.13;5043088;28;20100;-56
2023/03/11 03:08:31;;;;;;;8.33;5.10;;;;;;;-0.16;89.99;100720.75;5033032;28;20029;-57
2023/03/11 03:11:00;;;;;;;11.83;6.07;;;;;;;-0.12;89.43;100724.16;5033173;28;20067;-56
2023/03/11 03:13:26;;;;;;;13.47;6.17;;;;;;;-0.19;90.81;100718.19;5034577;28;21002;-56
2023/03/11 03:15:52;;;;;;;10.67;5.63;;;;;;;-0.32;90.59;100714.13;5050287;28;20025;-56
2023/03/11 03:18:17;;;;;;;8.37;5.47;;;;;;;-0.28;90.92;100736.69;5048602;28;20040;-56
2023/03/11 03:20:43;;;;;;;9.07;5.70;;;;;;;-0.28;90.75;100737.53;5041927;28;20013;-56
2023/03/11 03:23:08;;;;;;;7.77;5.03;;;;;;;-0.30;90.67;100744.53;5044201;28;20484;-56
2023/03/11 03:25:33;;;;;;;13.10;6.17;;;;;;;-0.29;89.93;100755.88;5047075;28;20043;-56
2023/03/11 03:27:59;;;;;;;8.43;5.60;;;;;;;-0.42;89.74;100750.00;5036610;28;20029;-56
2023/03/11 03:30:27;;;;;;;8.73;5.60;;;;;;;-0.39;90.10;100762.16;5048082;28;20027;-56
2023/03/11 03:32:54;;;;;;;11.30;5.43;;;;;;;-0.36;90.95;100768.19;5050857;28;20049;-56
2023/03/11 03:35:20;;;;;;;12.60;5.40;;;;;;;-0.40;91.33;100763.06;5049510;28;20024;-56
2023/03/11 03:37:46;;;;;;;6.23;5.60;;;;;;;-0.38;91.22;100771.72;5037530;28;20495;-56
2023/03/11 03:40:12;;;;;;;11.27;5.47;;;;;;;-0.42;90.83;100781.38;5051390;28;20100;-57
2023/03/11 03:42:37;;;;;;;7.53;4.93;;;;;;;-0.40;91.01;100778.75;5045808;28;20029;-56
2023/03/11 03:45:05;;;;;;;10.07;5.13;;;;;;;-0.46;90.95;100775.34;5036182;28;20028;-57
2023/03/11 03:47:32;;;;;;;22.03;5.40;;;;;;;-0.49;90.67;100780.63;5039351;28;20021;-56
2023/03/11 03:49:59;;;;;;;10.93;5.27;;;;;;;-0.53;91.09;100775.47;5013056;28;20485;-56
2023/03/11 03:52:25;;;;;;;11.10;5.73;;;;;;;-0.49;91.93;100787.59;5033624;28;20021;-56
2023/03/11 03:54:50;;;;;;;7.77;5.90;;;;;;;-0.47;92.12;100793.69;5050701;28;20449;-56
2023/03/11 03:57:16;;;;;;;12.53;5.57;;;;;;;-0.46;92.11;100787.56;5045026;28;20044;-57
2023/03/11 03:59:44;;;;;;;11.33;5.47;;;;;;;-0.46;91.69;100790.16;5050701;28;20025;-56
2023/03/11 04:02:09;;;;;;;8.73;5.27;;;;;;;-0.47;91.31;100791.91;5041260;28;20040;-56
2023/03/11 04:04:35;;;;;;;12.87;5.47;;;;;;;-0.42;92.19;100802.25;5044478;28;20029;-57
2023/03/11 04:07:03;;;;;;;7.17;5.10;;;;;;;-0.43;90.10;100799.69;5043057;28;20043;-57
2023/03/11 04:09:28;;;;;;;8.97;5.27;;;;;;;-0.48;90.29;100794.53;5047856;28;20060;-56
2023/03/11 04:11:56;;;;;;;10.57;5.37;;;;;;;-0.44;90.60;100796.22;5049756;28;20032;-57
2023/03/11 04:14:21;;;;;;;6.40;5.43;;;;;;;-0.46;89.39;100792.78;5049171;28;20495;-56
2023/03/11 04:16:47;;;;;;;7.20;5.23;;;;;;;-0.46;91.78;100798.84;5042401;28;20032;-57
2023/03/11 04:19:12;;;;;;;16.10;6.03;;;;;;;-0.44;90.86;100800.56;5050614;28;20027;-56
2023/03/11 04:21:38;;;;;;;7.80;5.83;;;;;;;-0.44;91.97;100797.94;5048603;28;20103;-56
2023/03/11 04:24:05;;;;;;;10.57;5.30;;;;;;;-0.46;90.55;100801.47;5044984;28;20112;-56
2023/03/11 04:26:31;;;;;;;8.00;5.40;;;;;;;-0.48;90.85;100795.41;5031800;28;20025;-56
2023/03/11 04:28:56;;;;;;;6.07;5.23;;;;;;;-0.45;91.55;100799.72;5049613;28;20028;-56
2023/03/11 04:31:21;;;;;;;9.80;5.83;;;;;;;-0.48;91.52;100797.16;5050089;28;20021;-57
2023/03/11 04:33:49;;;;;;;8.30;5.97;;;;;;;-0.43;92.10;100808.38;5048094;28;20021;-56
2023/03/11 04:36:14;;;;;;;6.33;5.67;;;;;;;-0.42;92.02;100810.09;5036930;28;20025;-56
2023/03/11 04:38:40;;;;;;;6.47;5.27;;;;;;;-0.53;92.07;100797.25;5047734;28;20099;-56
2023/03/11 04:41:06;;;;;;;11.43;6.00;;;;;;;-0.47;91.97;100804.97;5051620;28;20025;-57
2023/03/11 04:43:34;;;;;;;11.57;5.77;;;;;;;-0.53;91.96;100804.22;5048476;28;20025;-57
2023/03/11 04:46:00;;;;;;;7.20;6.33;;;;;;;-0.52;92.72;100808.56;5012641;28;20508;-57
2023/03/11 04:48:27;;;;;;;6.00;5.40;;;;;;;-0.56;92.77;100799.94;5027926;28;20025;-56
2023/03/11 04:50:54;;;;;;;7.23;5.57;;;;;;;-0.54;92.73;100813.78;5029435;28;20030;-56
2023/03/11 04:53:20;;;;;;;10.97;5.40;;;;;;;-0.58;93.49;100806.91;5031294;28;20064;-57
2023/03/11 04:55:46;;;;;;;10.67;5.67;;;;;;;-0.58;93.49;100806.06;5031246;28;20080;-57
2023/03/11 04:58:12;;;;;;;8.97;5.27;;;;;;;-0.63;92.63;100797.44;5031821;28;20022;-56
2023/03/11 05:00:37;;;;;;;7.70;5.97;;;;;;;-0.72;93.23;100782.78;5031172;28;20033;-56
2023/03/11 05:03:03;;;;;;;11.23;5.53;;;;;;;-0.63;93.05;100807.88;5031722;28;20091;-56
2023/03/11 05:05:28;;;;;;;12.63;5.50;;;;;;;-0.78;93.19;100785.50;5029885;28;20327;-56
2023/03/11 05:07:54;;;;;;;7.70;5.23;;;;;;;-0.65;93.03;100804.44;5036042;28;20025;-56
2023/03/11 05:10:21;;;;;;;8.97;5.60;;;;;;;-0.66;92.72;100813.16;5039305;28;20033;-56
2023/03/11 05:12:47;;;;;;;10.90;5.90;;;;;;;-0.70;93.77;100820.19;5029776;28;20500;-56
2023/03/11 05:15:15;;;;;;;9.37;5.30;;;;;;;-0.76;92.99;100815.94;5030480;28;20037;-56
2023/03/11 05:17:41;;;;;;;8.77;5.43;;;;;;;-0.82;93.17;100807.34;5031070;28;20029;-56
2023/03/11 05:20:08;;;;;;;9.40;5.23;;;;;;;-0.75;94.07;100824.63;5030108;28;20033;-55
2023/03/11 05:22:36;;;;;;;6.33;5.73;;;;;;;-0.78;93.97;100829.91;5029576;28;20100;-55
2023/03/11 05:25:03;;;;;;;6.03;5.53;;;;;;;-0.81;93.78;100824.72;5030592;28;20023;-56
2023/03/11 05:27:28;;;;;;;10.60;5.80;;;;;;;-0.82;93.77;100834.31;5031308;28;20463;-55
2023/03/11 05:29:56;;;;;;;9.73;5.60;;;;;;;-0.82;93.99;100836.94;5029693;28;20093;-55
2023/03/11 05:32:22;;;;;;;10.97;5.70;;;;;;;-0.86;94.36;100834.38;5031145;28;20365;-56
2023/03/11 05:34:47;;;;;;;9.20;5.73;;;;;;;-0.86;94.29;100839.59;5029690;28;20028;-56
2023/03/11 05:37:13;;;;;;;7.60;6.13;;;;;;;-0.85;93.59;100846.53;5030919;28;20029;-55
2023/03/11 05:39:38;;;;;;;8.17;5.67;;;;;;;-0.85;94.11;100846.53;5034120;28;20014;-56
2023/03/11 05:42:05;;;;;;;10.53;6.00;;;;;;;-0.90;93.91;100857.06;5035234;28;20465;-56
2023/03/11 05:44:31;;;;;;;15.60;5.77;;;;;;;-0.92;93.64;100856.22;5034659;28;20029;-55
2023/03/11 05:46:56;;;;;;;7.87;6.13;;;;;;;-0.94;93.42;100850.19;5035043;28;20037;-55
2023/03/11 05:49:21;;;;;;;9.23;5.73;;;;;;;-0.95;93.53;100851.06;5034683;28;20025;-55
2023/03/11 05:51:48;;;;;;;10.03;5.67;;;;;;;-0.98;93.68;100851.97;5034805;28;20022;-55
2023/03/11 05:54:14;;;;;;;7.67;6.10;;;;;;;-0.97;93.51;100853.72;5033336;28;20053;-55
2023/03/11 05:56:41;;;;;;;10.40;5.87;;;;;;;-1.03;93.94;100855.53;5033519;28;20080;-56
2023/03/11 05:59:07;;;;;;;8.67;6.27;;;;;;;-1.06;93.97;100859.06;5033493;28;20049;-56
2023/03/11 06:01:33;;;;;;;13.07;5.17;;;;;;;-1.12;93.51;100847.84;5033179;28;20028;-56
2023/03/11 06:03:59;;;;;;;7.30;4.90;;;;;;;-1.09;93.94;100853.88;5034853;28;20139;-55
2023/03/11 06:06:27;;;;;;;8.57;6.13;;;;;;;-1.09;93.60;100863.44;5032658;28;20028;-55
2023/03/11 06:08:53;;;;;;;9.50;6.13;;;;;;;-1.08;93.54;100863.44;5034836;28;20423;-55
2023/03/11 06:11:19;;;;;;;10.63;5.67;;;;;;;-1.10;93.44;100869.56;5032997;28;20052;-55
2023/03/11 06:13:44;;;;;;;9.30;6.00;;;;;;;-1.06;93.85;100876.44;5034537;28;20029;-55
2023/03/11 06:16:10;;;;;;;10.70;6.17;;;;;;;-1.13;93.65;100872.22;5032379;28;20120;-55
2023/03/11 06:18:35;;;;;;;10.40;5.80;;;;;;;-1.12;93.03;100877.41;5034229;28;20110;-55
2023/03/11 06:21:02;;;;;;;12.57;5.57;;;;;;;-1.09;94.05;100876.50;5032623;28;20026;-56
2023/03/11 06:23:28;;;;;;;7.70;5.43;;;;;;;-1.11;93.47;100886.97;5032077;28;20021;-55
2023/03/11 06:26:03;;;;;;;7.23;5.60;;;;;;;-1.17;93.71;100874.88;5040359;28;20021;-54
2023/03/11 06:28:31;;;;;;;10.17;6.03;;;;;;;-1.06;92.92;100890.38;5052297;28;20029;-55
2023/03/11 06:31:06;;;;;;;8.17;5.40;;;;;;;-1.05;93.49;100893.84;5034232;28;20029;-55
2023/03/11 06:33:31;;;;;;;9.87;6.47;;;;;;;-1.08;92.90;100899.97;5031224;28;20029;-56
2023/03/11 06:36:01;;;;;;;10.87;6.00;;;;;;;-1.06;94.00;100894.72;5044586;28;20036;-56
2023/03/11 06:38:27;;;;;;;19.60;7.10;;;;;;;-1.04;93.25;100904.25;5033710;28;20032;-56
2023/03/11 06:40:57;;;;;;;6.97;5.47;;;;;;;-1.03;92.51;100907.72;5033679;28;20025;-56
2023/03/11 06:43:22;;;;;;;11.20;5.70;;;;;;;-1.01;93.39;100911.19;5037919;28;20490;-55
2023/03/11 06:45:48;;;;;;;6.10;5.50;;;;;;;-1.01;92.84;100917.25;5035715;28;20215;-56
2023/03/11 06:48:13;;;;;;;10.67;6.13;;;;;;;-1.01;93.23;100916.41;5031854;28;20055;-56
2023/03/11 06:50:38;;;;;;;7.27;5.70;;;;;;;-1.01;92.71;100926.84;5031605;28;20120;-55
2023/03/11 06:53:06;;;;;;;7.27;5.57;;;;;;;-1.04;93.35;100925.13;5032842;28;20029;-56
2023/03/11 06:55:32;;;;;;;10.97;6.00;;;;;;;-1.04;93.51;100925.13;5031127;28;20057;-55
2023/03/11 06:57:58;;;;;;;10.37;5.93;;;;;;;-1.03;93.29;100937.31;5033899;28;20053;-55
2023/03/11 07:00:27;;;;;;;8.07;5.83;;;;;;;-1.02;93.36;100938.19;5031853;28;20045;-56
2023/03/11 07:02:52;;;;;;;15.60;6.17;;;;;;;-0.98;93.49;100948.53;5033450;28;20025;-56
2023/03/11 07:05:17;;;;;;;7.27;6.00;;;;;;;-0.93;93.22;100951.09;5032965;28;20059;-55
2023/03/11 07:07:43;;;;;;;7.43;5.70;;;;;;;-0.85;93.10;100958.81;5032271;28;20063;-56
2023/03/11 07:10:10;;;;;;;7.03;6.27;;;;;;;-0.79;92.48;100948.28;5033292;28;20087;-56
2023/03/11 07:12:36;;;;;;;7.83;6.10;;;;;;;-0.74;92.60;100947.31;5030757;28;20059;-56
2023/03/11 07:15:01;;;;;;;10.03;5.80;;;;;;;-0.55;91.88;100953.13;5032641;28;20148;-56
2023/03/11 07:17:27;;;;;;;7.03;5.40;;;;;;;-0.44;92.80;100957.31;5031997;28;20179;-56
2023/03/11 07:19:52;;;;;;;6.63;5.23;;;;;;;-0.41;93.11;100960.75;5031963;28;20021;-56
2023/03/11 07:22:18;;;;;;;11.70;5.77;;;;;;;-0.31;93.22;100964.94;5031845;28;20174;-56
2023/03/11 07:24:47;;;;;;;12.10;5.97;;;;;;;-0.26;91.99;100967.50;5032471;28;20021;-56
2023/03/11 07:27:16;;;;;;;9.57;6.55;;;;;;;-0.18;92.12;100967.34;5032200;28;20032;-56
2023/03/11 07:29:41;;;;;;;8.97;5.90;;;;;;;-0.04;91.82;100971.44;5047368;28;20074;-56
2023/03/11 07:32:07;;;;;;;7.53;6.00;;;;;;;0.02;91.90;100974.84;5041035;28;20100;-56
2023/03/11 07:34:33;;;;;;;8.13;6.30;;;;;;;0.14;91.83;100972.00;5032398;28;20033;-56
2023/03/11 07:36:58;;;;;;;7.67;5.30;;;;;;;0.25;91.57;100977.91;5033215;28;20030;-56
2023/03/11 07:39:24;;;;;;;7.23;6.50;;;;;;;0.30;91.03;100978.69;5031230;28;20275;-56
2023/03/11 07:41:49;;;;;;;10.70;6.77;;;;;;;0.41;90.54;100976.75;5032835;28;20033;-56
2023/03/11 07:44:16;;;;;;;14.10;5.80;;;;;;;0.43;90.11;100966.22;5026131;28;20388;-56
2023/03/11 07:46:42;;;;;;;8.00;5.50;;;;;;;0.55;91.12;100976.44;5016923;28;20021;-56
2023/03/11 07:49:07;;;;;;;11.10;5.77;;;;;;;0.58;90.17;100980.78;5028494;28;20571;-56
2023/03/11 07:51:34;;;;;;;10.50;6.23;;;;;;;0.67;90.25;100978.81;5031456;28;20365;-55
2023/03/11 07:54:01;;;;;;;8.37;5.67;;;;;;;0.87;90.05;100990.66;5035244;28;20045;-56
2023/03/11 07:56:29;;;;;;;7.33;6.10;;;;;;;1.00;90.25;101000.00;5031842;28;20486;-55
2023/03/11 07:58:54;;;;;;;8.73;5.53;;;;;;;1.13;88.81;100998.81;5031176;28;20022;-56
2023/03/11 08:01:23;;;;;;;9.50;5.97;;;;;;;1.29;87.57;100998.47;5031283;28;20032;-56
2023/03/11 08:03:55;;;;;;;9.37;6.30;;;;;;;1.47;87.61;101003.31;5031436;28;20797;-56
2023/03/11 08:06:24;;;;;;;8.43;6.50;;;;;;;1.59;87.51;100997.78;5031085;28;20104;-56
2023/03/11 08:08:50;;;;;;;7.03;6.33;;;;;;;1.76;86.43;101007.84;5036984;28;20024;-56
2023/03/11 08:11:16;;;;;;;8.73;5.93;;;;;;;1.97;87.49;101000.34;5049584;28;20475;-56
2023/03/11 08:13:43;;;;;;;8.30;5.78;;;;;;;2.03;87.63;101002.84;5042301;28;20029;-56
2023/03/11 08:16:12;;;;;;;6.40;5.80;;;;;;;2.16;87.50;101019.13;5050337;28;20446;-56
2023/03/11 08:18:37;;;;;;;7.57;6.27;;;;;;;2.32;83.79;101019.56;5035380;28;20030;-56
2023/03/11 08:21:13;;;;;;;16.23;6.65;;;;;;;2.41;80.60;101020.22;5031683;28;20419;-56
2023/03/11 08:23:41;;;;;;;8.80;6.23;;;;;;;2.54;80.15;101012.88;5030986;28;20530;-56
2023/03/11 08:26:10;;;;;;;10.15;7.28;;;;;;;2.73;81.05;101015.81;5031114;28;20025;-55
2023/03/11 08:28:36;;;;;;;7.78;6.90;;;;;;;2.86;79.83;101014.59;5031246;28;20438;-56
2023/03/11 08:31:02;;;;;;;8.43;5.88;;;;;;;2.99;78.21;101014.22;5030199;28;20514;-56
2023/03/11 08:33:28;;;;;;;7.88;6.95;;;;;;;3.06;74.14;101024.53;5030881;28;20384;-56
2023/03/11 08:35:53;;;;;;;8.75;5.28;;;;;;;3.19;72.64;101031.13;5029606;28;20017;-56
2023/03/11 08:38:19;;;;;;;8.82;5.45;;;;;;;3.26;75.79;101010.78;5031617;28;20033;-56
2023/03/11 08:40:47;;;;;;;12.43;6.78;;;;;;;3.46;76.44;101018.06;5030188;28;20574;-56
2023/03/11 08:43:13;;;;;;;12.07;6.55;;;;;;;3.55;72.43;101023.03;5031267;28;20017;-56
2023/03/11 08:45:40;;;;;;;11.10;6.78;;;;;;;3.69;71.43;101030.50;5029553;28;20095;-56
2023/03/11 08:48:08;;;;;;;12.82;6.25;;;;;;;3.83;70.45;101030.06;5031705;28;20480;-56
2023/03/11 08:50:33;;;;;;;9.32;6.25;;;;;;;3.74;72.33;101019.84;5031117;28;20530;-57
2023/03/11 08:53:02;;;;;;;9.45;6.68;;;;;;;3.87;70.27;101039.56;5030053;28;20029;-56
2023/03/11 08:55:28;;;;;;;7.40;5.00;;;;;;;3.81;71.97;101038.00;5031387;28;20485;-55
2023/03/11 08:57:55;;;;;;;9.68;6.25;;;;;;;3.87;69.33;101044.84;5030516;28;20393;-56
2023/03/11 09:00:21;;;;;;;9.63;6.72;;;;;;;3.87;65.98;101055.34;5028781;28;20018;-56
2023/03/11 09:02:46;;;;;;;9.35;7.20;;;;;;;3.91;66.92;101061.38;5030933;28;20609;-56
2023/03/11 09:05:12;;;;;;;14.23;7.05;;;;;;;4.03;66.58;101061.84;5031250;28;20042;-56
2023/03/11 09:07:38;;;;;;;9.43;6.50;;;;;;;4.09;68.43;101052.91;5029882;28;20024;-56
2023/03/11 09:10:04;;;;;;;9.32;6.63;;;;;;;4.09;64.25;101055.53;5029922;28;20682;-57
2023/03/11 09:12:30;;;;;;;11.05;7.13;;;;;;;4.06;64.58;101053.88;5029888;28;20104;-56
2023/03/11 09:14:55;;;;;;;8.35;6.07;;;;;;;4.32;63.54;101060.91;5034493;28;20104;-56
2023/03/11 09:17:21;;;;;;;9.45;7.90;;;;;;;4.33;61.98;101059.13;5034516;28;20472;-56
2023/03/11 09:19:46;;;;;;;8.55;5.93;;;;;;;4.72;62.67;101063.91;5034565;28;20056;-56
2023/03/11 09:22:12;;;;;;;10.27;6.63;;;;;;;4.53;61.37;101053.19;5034078;28;20025;-56
2023/03/11 09:24:37;;;;;;;6.22;5.30;;;;;;;4.73;60.95;101076.16;5034201;28;20017;-56
2023/03/11 09:27:03;;;;;;;7.03;6.35;;;;;;;4.72;60.08;101066.56;5035665;28;20448;-56
2023/03/11 09:29:28;;;;;;;6.68;5.95;;;;;;;4.93;59.54;101073.69;5034659;28;20028;-56
2023/03/11 09:31:54;;;;;;;6.75;6.15;;;;;;;5.19;57.87;101072.72;5034085;28;20032;-57
2023/03/11 09:34:19;;;;;;;7.10;6.13;;;;;;;5.28;58.42;101075.94;5034064;28;20140;-57
2023/03/11 09:36:45;;;;;;;7.40;6.28;;;;;;;5.46;55.02;101091.94;5035234;28;20037;-57
2023/03/11 09:39:11;;;;;;;6.88;5.85;;;;;;;5.49;55.99;101069.84;5035168;28;20112;-57
2023/03/11 09:41:42;;;;;;;8.30;5.88;;;;;;;5.53;58.88;101067.94;5035018;28;20551;-57
2023/03/11 09:44:29;;;;;;;8.23;6.10;;;;;;;5.52;59.02;101082.91;5034907;28;20056;-57
2023/03/11 09:47:16;;;;;;;6.95;6.03;;;;;;;5.69;59.36;101074.38;5034179;28;20097;-56
2023/03/11 09:50:18;;;;;;;8.43;5.90;;;;;;;6.01;59.72;101077.53;5024873;28;20461;-57
2023/03/11 09:52:50;;;;;;;7.53;5.70;;;;;;;5.95;58.05;101080.44;5027722;28;20032;-57
2023/03/11 09:55:43;;;;;;;9.35;6.03;;;;;;;6.09;59.19;101086.88;5025268;28;20120;-56
2023/03/11 09:58:29;;;;;;;7.32;5.50;;;;;;;6.18;54.98;101069.78;5024397;28;20457;-56
2023/03/11 10:00:55;;;;;;;6.78;6.07;;;;;;;6.24;53.78;101066.91;5023373;28;20032;-56
2023/03/11 10:03:47;;;;;;;8.43;5.40;;;;;;;6.31;56.12;101080.69;5030857;28;20030;-57
2023/03/11 10:06:18;;;;;;;10.13;5.15;;;;;;;6.03;55.53;101078.31;5033248;28;20400;-56
2023/03/11 10:09:14;;;;;;;10.90;5.68;;;;;;;6.02;53.93;101072.19;5034418;28;20051;-56
2023/03/11 10:11:51;;;;;;;5.97;5.38;;;;;;;5.99;56.30;101071.44;5032411;28;20028;-56
2023/03/11 10:14:22;;;;;;;6.47;5.05;;;;;;;5.68;53.17;101075.28;5033780;28;20104;-56
2023/03/11 10:17:06;;;;;;;6.63;5.53;;;;;;;5.63;54.20;101078.09;5034730;28;20034;-57
2023/03/11 10:19:38;;;;;;;7.72;5.47;;;;;;;5.41;52.04;101091.25;5034296;28;20048;-56
2023/03/11 10:22:21;;;;;;;6.07;5.47;;;;;;;5.35;56.40;101086.19;5034125;28;20072;-56
2023/03/11 10:25:13;;;;;;;7.47;5.72;;;;;;;5.35;56.40;101094.09;5033605;28;20480;-56
2023/03/11 10:27:50;;;;;;;8.02;5.65;;;;;;;5.07;58.82;101086.38;5034240;28;20396;-56
2023/03/11 10:30:23;;;;;;;9.85;6.55;;;;;;;5.14;58.25;101098.41;5033788;28;20032;-56
2023/03/11 10:33:07;;;;;;;9.07;5.50;;;;;;;5.18;56.57;101105.28;5033963;28;20036;-56
2023/03/11 10:35:38;;;;;;;6.72;6.07;;;;;;;5.22;56.76;101100.75;5034072;28;20029;-56
2023/03/11 10:38:18;;;;;;;6.78;5.78;;;;;;;5.25;60.92;101090.09;5034248;28;20029;-56
2023/03/11 10:40:46;;;;;;;7.90;6.40;;;;;;;5.31;58.50;101104.84;5032315;28;20480;-56
2023/03/11 10:43:25;;;;;;;7.70;6.50;;;;;;;5.37;58.09;101104.59;5032535;28;20492;-56
2023/03/11 10:45:52;;;;;;;7.25;6.55;;;;;;;5.46;57.74;101099.84;5033323;28;20029;-56
2023/03/11 10:48:19;;;;;;;9.48;5.60;;;;;;;5.42;55.70;101102.66;5034104;28;20491;-56
2023/03/11 10:50:53;;;;;;;7.53;6.32;;;;;;;5.36;57.64;101108.19;5031818;28;20469;-56
2023/03/11 10:53:19;;;;;;;8.63;6.00;;;;;;;5.37;57.37;101104.59;5032479;28;20033;-56
2023/03/11 10:55:51;;;;;;;6.20;5.45;;;;;;;5.53;59.51;101095.22;5033031;28;20424;-56
2023/03/11 10:58:23;;;;;;;7.65;5.65;;;;;;;5.48;58.54;101097.16;5033637;28;20113;-56
2023/03/11 11:01:22;;;;;;;6.70;6.05;;;;;;;5.94;58.06;101098.03;5032473;28;20033;-57
2023/03/11 11:03:50;;;;;;;6.97;6.30;;;;;;;5.79;53.92;101088.91;5010072;28;20037;-57
2023/03/11 11:06:29;;;;;;;7.00;5.95;;;;;;;5.89;54.46;101094.69;5033358;28;20392;-56
2023/03/11 11:09:18;;;;;;;6.97;5.38;;;;;;;5.89;54.81;101094.69;5032333;28;20030;-56
2023/03/11 11:12:04;;;;;;;9.23;5.38;;;;;;;5.92;54.91;101103.34;5031755;28;20040;-56
2023/03/11 11:14:43;;;;;;;6.40;5.63;;;;;;;5.73;54.12;101094.41;5032878;28;20535;-56
2023/03/11 11:17:28;;;;;;;9.05;5.63;;;;;;;5.89;53.27;101100.84;5032154;28;20017;-56
2023/03/11 11:19:56;;;;;;;5.90;5.05;;;;;;;5.83;50.36;101103.72;5033707;28;20017;-56
2023/03/11 11:22:23;;;;;;;7.05;6.35;;;;;;;5.90;51.32;101101.69;5033009;28;20083;-56
2023/03/11 11:24:51;;;;;;;6.40;5.82;;;;;;;5.79;52.00;101102.09;5032842;28;20029;-56
2023/03/11 11:27:21;;;;;;;9.05;5.50;;;;;;;5.78;52.58;101102.16;5033414;28;20025;-56
2023/03/11 11:30:02;;;;;;;10.15;6.25;;;;;;;6.03;56.65;101099.44;5032395;28;20026;-56
2023/03/11 11:32:28;;;;;;;7.65;6.03;;;;;;;6.47;53.66;101100.28;5028631;28;20025;-56